createdAt,value
2019-04-26T00:00:50.626Z,4.00
2019-04-26T00:03:19.266Z,3.92
2019-04-26T00:05:45.943Z,3.05
2019-04-26T00:08:13.662Z,3.75
2019-04-26T00:10:45.415Z,3.50
2019-04-26T00:13:30.665Z,3.22
2019-04-26T00:16:14.826Z,2.22
2019-04-26T00:18:41.368Z,1.72
2019-04-26T00:21:08.077Z,2.50
2019-04-26T00:23:34.698Z,3.20
2019-04-26T00:26:01.604Z,2.52
2019-04-26T00:28:29.471Z,5.00
2019-04-26T00:30:56.189Z,6.12
2019-04-26T00:33:23.245Z,2.60
2019-04-26T00:35:49.734Z,2.55
2019-04-26T00:38:18.205Z,3.35
2019-04-26T00:40:45.691Z,2.40
2019-04-26T00:43:12.860Z,2.22
2019-04-26T00:45:39.995Z,4.00
2019-04-26T00:48:08.739Z,3.12
2019-04-26T00:50:35.514Z,3.50
2019-04-26T00:53:02.724Z,3.22
2019-04-26T00:55:30.948Z,3.12
2019-04-26T00:57:57.855Z,3.33
2019-04-26T01:00:24.346Z,3.65
2019-04-26T01:02:52.586Z,4.83
2019-04-26T01:05:19.306Z,4.15
2019-04-26T01:07:47.643Z,3.62
2019-04-26T01:10:16.137Z,2.75
2019-04-26T01:12:42.598Z,3.77
2019-04-26T01:15:10.643Z,3.00
2019-04-26T01:17:36.976Z,5.80
2019-04-26T01:20:05.508Z,3.40
2019-04-26T01:22:35.798Z,2.95
2019-04-26T01:25:04.373Z,2.62
2019-04-26T01:27:31.484Z,3.15
2019-04-26T01:30:01.734Z,2.70
2019-04-26T01:32:30.642Z,4.75
2019-04-26T01:34:57.422Z,2.33
2019-04-26T01:37:24.770Z,2.20
2019-04-26T01:39:57.624Z,3.50
2019-04-26T01:42:35.142Z,5.17
2019-04-26T01:45:22.292Z,3.85
2019-04-26T01:47:52.401Z,2.92
2019-04-26T01:50:22.582Z,2.58
2019-04-26T01:52:51.989Z,2.72
2019-04-26T01:55:18.734Z,4.58
2019-04-26T01:57:45.159Z,2.60
2019-04-26T02:00:14.626Z,3.67
2019-04-26T02:02:48.884Z,2.58
2019-04-26T02:05:20.390Z,3.60
2019-04-26T02:07:47.431Z,5.60
2019-04-26T02:10:17.048Z,4.33
2019-04-26T02:12:45.567Z,3.80
2019-04-26T02:15:14.562Z,2.62
2019-04-26T02:17:42.699Z,4.45
2019-04-26T02:20:10.335Z,2.62
2019-04-26T02:22:42.534Z,3.02
2019-04-26T02:25:09.296Z,3.47
2019-04-26T02:27:36.917Z,3.25
2019-04-26T02:30:06.424Z,3.75
2019-04-26T02:32:34.776Z,2.55
2019-04-26T02:35:01.755Z,3.02
2019-04-26T02:37:30.703Z,4.28
2019-04-26T02:39:57.639Z,4.05
2019-04-26T02:42:30.160Z,4.00
2019-04-26T02:45:20.644Z,3.02
2019-04-26T02:47:58.880Z,3.92
2019-04-26T02:50:30.292Z,3.15
2019-04-26T02:53:02.766Z,5.15
2019-04-26T02:55:52.183Z,3.72
2019-04-26T02:58:22.362Z,3.08
2019-04-26T03:00:49.092Z,4.80
2019-04-26T03:03:18.869Z,4.25
2019-04-26T03:05:47.459Z,3.95
2019-04-26T03:08:17.738Z,3.25
2019-04-26T03:10:47.954Z,3.67
2019-04-26T03:13:18.411Z,4.72
2019-04-26T03:16:06.962Z,5.22
2019-04-26T03:18:51.081Z,3.70
2019-04-26T03:21:39.802Z,3.22
2019-04-26T03:24:37.187Z,3.12
2019-04-26T03:27:10.734Z,3.55
2019-04-26T03:30:18.886Z,4.87
2019-04-26T03:32:49.008Z,3.72
2019-04-26T03:35:17.066Z,3.77
2019-04-26T03:38:20.034Z,5.53
2019-04-26T03:41:07.291Z,4.35
2019-04-26T03:43:42.343Z,4.95
2019-04-26T03:46:18.854Z,5.62
2019-04-26T03:48:57.909Z,4.42
2019-04-26T03:51:30.860Z,4.62
2019-04-26T03:54:22.321Z,4.97
2019-04-26T03:57:03.515Z,5.12
2019-04-26T04:02:20.188Z,4.37
2019-04-26T04:05:10.667Z,5.70
2019-04-26T04:07:47.195Z,4.50
2019-04-26T04:10:22.447Z,5.03
2019-04-26T04:13:21.173Z,4.55
2019-04-26T04:15:51.495Z,5.80
2019-04-26T04:18:28.113Z,3.87
2019-04-26T04:21:20.735Z,4.70
2019-04-26T04:23:50.983Z,6.00
2019-04-26T04:26:22.764Z,4.70
2019-04-26T04:29:19.308Z,4.53
2019-04-26T04:31:49.598Z,5.62
2019-04-26T04:34:37.834Z,5.70
2019-04-26T04:37:07.647Z,5.92
2019-04-26T04:39:53.638Z,6.10
2019-04-26T04:42:34.478Z,4.87
2019-04-26T04:45:26.282Z,5.87
2019-04-26T04:48:21.638Z,6.62
2019-04-26T04:51:07.027Z,3.70
2019-04-26T04:53:41.438Z,3.02
2019-04-26T04:56:33.938Z,4.22
2019-04-26T05:01:46.292Z,7.30
2019-04-26T05:04:21.505Z,7.40
2019-04-26T05:07:08.631Z,7.28
2019-04-26T05:09:45.313Z,8.88
2019-04-26T05:12:24.804Z,7.78
2019-04-26T05:15:20.778Z,9.53
2019-04-26T05:18:09.433Z,8.10
2019-04-26T05:20:57.867Z,9.95
2019-04-26T05:23:39.982Z,9.75
2019-04-26T05:26:45.993Z,9.60
2019-04-26T05:29:38.019Z,9.18
2019-04-26T05:32:40.425Z,10.98
2019-04-26T05:35:40.871Z,7.50
2019-04-26T05:38:27.808Z,6.45
2019-04-26T05:41:07.179Z,5.92
2019-04-26T05:44:01.947Z,11.70
2019-04-26T05:47:01.080Z,25.88
2019-04-26T05:49:57.999Z,54.00
2019-04-26T05:53:03.488Z,63.15
2019-04-26T05:55:47.335Z,81.60
2019-04-26T05:58:38.655Z,85.72
2019-04-26T06:01:41.108Z,37.17
2019-04-26T06:04:39.395Z,26.75
2019-04-26T06:07:38.441Z,22.25
2019-04-26T06:10:16.714Z,22.27
2019-04-26T06:12:52.416Z,20.15
2019-04-26T06:15:33.065Z,22.45
2019-04-26T06:18:20.656Z,21.55
2019-04-26T06:21:02.554Z,16.97
2019-04-26T06:23:38.713Z,18.27
2019-04-26T06:26:54.303Z,18.95
2019-04-26T06:29:47.749Z,14.75
2019-04-26T06:32:23.827Z,17.85
2019-04-26T06:35:12.171Z,20.45
2019-04-26T06:38:28.820Z,18.23
2019-04-26T06:41:21.663Z,17.77
2019-04-26T06:44:03.074Z,15.30
2019-04-26T06:46:35.208Z,13.55
2019-04-26T06:49:09.839Z,16.20
2019-04-26T06:51:43.009Z,11.93
2019-04-26T06:54:16.972Z,13.70
2019-04-26T06:57:07.883Z,13.55
2019-04-26T07:00:02.347Z,15.40
2019-04-26T07:03:03.604Z,15.32
2019-04-26T07:05:36.358Z,17.00
2019-04-26T07:08:30.545Z,20.68
2019-04-26T07:11:14.689Z,15.70
2019-04-26T07:13:49.544Z,11.25
2019-04-26T07:16:35.075Z,13.38
2019-04-26T07:19:08.224Z,14.73
2019-04-26T07:22:15.769Z,15.60
2019-04-26T07:25:24.737Z,11.65
2019-04-26T07:28:09.213Z,13.80
2019-04-26T07:30:50.467Z,16.97
2019-04-26T07:33:40.601Z,23.83
2019-04-26T07:36:11.968Z,19.92
2019-04-26T07:39:18.470Z,17.40
2019-04-26T07:42:22.600Z,20.55
2019-04-26T07:45:15.783Z,16.77
2019-04-26T07:47:54.459Z,13.83
2019-04-26T07:50:47.493Z,14.43
2019-04-26T07:53:37.183Z,13.70
2019-04-26T07:56:28.408Z,10.80
2019-04-26T07:59:33.575Z,11.00
2019-04-26T08:02:25.323Z,9.95
2019-04-26T08:05:21.306Z,10.78
2019-04-26T08:08:00.497Z,8.68
2019-04-26T08:10:30.603Z,11.00
2019-04-26T08:13:01.026Z,10.90
2019-04-26T08:15:45.016Z,12.82
2019-04-26T08:18:16.447Z,9.93
2019-04-26T08:20:49.995Z,12.88
2019-04-26T08:23:38.583Z,7.80
2019-04-26T08:25:55.352Z,7.45
2019-04-26T08:28:24.932Z,7.93
2019-04-26T08:30:54.531Z,9.35
2019-04-26T08:33:26.490Z,7.90
2019-04-26T08:35:55.575Z,7.05
2019-04-26T08:38:25.390Z,11.38
2019-04-26T08:40:52.390Z,6.00
2019-04-26T08:43:38.554Z,9.70
2019-04-26T08:46:12.991Z,5.95
2019-04-26T08:49:02.156Z,6.17
2019-04-26T08:51:31.354Z,6.05
2019-04-26T08:53:59.801Z,7.58
2019-04-26T08:56:36.054Z,6.78
2019-04-26T08:59:09.351Z,6.75
2019-04-26T09:01:41.973Z,7.83
2019-04-26T09:04:12.994Z,7.40
2019-04-26T09:06:45.080Z,7.75
2019-04-26T09:09:18.302Z,6.53
2019-04-26T09:11:58.938Z,6.97
2019-04-26T09:14:17.385Z,5.17
2019-04-26T09:16:50.263Z,8.00
2019-04-26T09:19:12.600Z,3.55
2019-04-26T09:21:40.855Z,6.17
2019-04-26T09:24:13.059Z,9.80
2019-04-26T09:29:17.237Z,7.22
2019-04-26T09:31:45.517Z,3.27
2019-04-26T09:34:14.900Z,4.83
2019-04-26T09:36:41.573Z,4.65
2019-04-26T09:39:10.039Z,4.12
2019-04-26T09:41:36.887Z,6.05
2019-04-26T09:44:06.464Z,6.12
2019-04-26T09:46:52.741Z,7.22
2019-04-26T09:49:37.301Z,6.22
2019-04-26T09:52:04.628Z,4.10
2019-04-26T09:54:30.886Z,4.97
2019-04-26T09:56:57.195Z,5.58
2019-04-26T09:59:23.488Z,5.70
2019-04-26T10:01:50.156Z,6.22
2019-04-26T10:04:16.618Z,4.08
2019-04-26T10:06:42.895Z,4.35
2019-04-26T10:09:13.003Z,4.50
2019-04-26T10:11:44.585Z,6.05
2019-04-26T10:14:12.925Z,4.03
2019-04-26T10:16:58.256Z,5.60
2019-04-26T10:19:33.121Z,5.20
2019-04-26T10:21:59.832Z,5.25
2019-04-26T10:24:26.222Z,6.22
2019-04-26T10:26:55.385Z,7.15
2019-04-26T10:29:21.738Z,7.42
2019-04-26T10:31:51.779Z,6.33
2019-04-26T10:34:17.688Z,7.80
2019-04-26T10:36:44.373Z,6.37
2019-04-26T10:39:12.178Z,9.50
2019-04-26T10:41:38.703Z,6.17
2019-04-26T10:44:05.091Z,5.90
2019-04-26T10:46:31.493Z,6.75
2019-04-26T10:49:08.311Z,8.78
2019-04-26T10:51:28.288Z,4.17
2019-04-26T10:53:56.492Z,6.00
2019-04-26T10:56:25.352Z,8.73
2019-04-26T10:58:56.838Z,7.15
2019-04-26T11:01:23.768Z,5.17
2019-04-26T11:03:52.025Z,4.20
2019-04-26T11:06:18.535Z,4.47
2019-04-26T11:08:44.855Z,7.33
2019-04-26T11:11:11.496Z,6.20
2019-04-26T11:13:37.800Z,8.43
2019-04-26T11:16:07.242Z,6.85
2019-04-26T11:18:32.803Z,5.72
2019-04-26T11:20:59.204Z,4.55
2019-04-26T11:23:25.904Z,5.22
2019-04-26T11:25:52.230Z,8.75
2019-04-26T11:28:21.287Z,6.47
2019-04-26T11:30:52.140Z,6.83
2019-04-26T11:33:17.730Z,5.47
2019-04-26T11:35:44.283Z,4.97
2019-04-26T11:38:10.825Z,5.15
2019-04-26T11:40:37.476Z,4.10
2019-04-26T11:43:03.868Z,8.53
2019-04-26T11:45:33.584Z,6.85
2019-04-26T11:48:00.020Z,6.67
2019-04-26T11:50:26.728Z,3.80
2019-04-26T11:52:55.016Z,3.80
2019-04-26T11:55:21.384Z,5.95
2019-04-26T11:57:49.159Z,6.87
2019-04-26T12:00:27.448Z,7.05
2019-04-26T12:02:53.645Z,6.95
2019-04-26T12:05:36.839Z,8.13
2019-04-26T12:08:11.069Z,3.67
2019-04-26T12:10:40.485Z,5.70
2019-04-26T12:13:06.301Z,4.87
2019-04-26T12:15:32.660Z,4.72
2019-04-26T12:17:59.259Z,6.08
2019-04-26T12:20:26.916Z,10.28
2019-04-26T12:22:56.703Z,6.60
2019-04-26T12:25:23.017Z,2.10
2019-04-26T12:27:53.239Z,5.25
2019-04-26T12:30:17.733Z,7.03
2019-04-26T12:32:44.474Z,2.92
2019-04-26T12:35:11.376Z,5.75
2019-04-26T12:37:37.845Z,4.10
2019-04-26T12:40:07.124Z,6.15
2019-04-26T12:42:34.840Z,5.17
2019-04-26T12:45:03.240Z,7.35
2019-04-26T12:47:38.369Z,5.22
2019-04-26T12:50:04.791Z,6.97
2019-04-26T12:52:31.363Z,4.72
2019-04-26T12:54:57.817Z,4.25
2019-04-26T12:57:24.297Z,5.87
2019-04-26T12:59:50.756Z,5.78
2019-04-26T13:02:20.757Z,2.55
2019-04-26T13:04:45.558Z,4.30
2019-04-26T13:07:23.494Z,4.62
2019-04-26T13:09:44.691Z,4.20
2019-04-26T13:12:13.135Z,6.10
2019-04-26T13:14:44.432Z,4.42
2019-04-26T13:17:15.949Z,4.37
2019-04-26T13:19:42.315Z,2.67
2019-04-26T13:22:12.631Z,4.25
2019-04-26T13:24:39.754Z,4.10
2019-04-26T13:27:06.216Z,4.50
2019-04-26T13:29:33.960Z,7.25
2019-04-26T13:32:00.516Z,4.50
2019-04-26T13:34:28.172Z,5.12
2019-04-26T13:36:54.653Z,4.80
2019-04-26T13:39:22.550Z,5.72
2019-04-26T13:41:56.269Z,3.20
2019-04-26T13:44:19.716Z,4.42
2019-04-26T13:46:50.747Z,4.42
2019-04-26T13:49:28.494Z,2.85
2019-04-26T13:51:55.129Z,4.47
2019-04-26T13:54:22.716Z,3.55
2019-04-26T13:56:49.211Z,7.05
2019-04-26T13:59:15.933Z,3.77
2019-04-26T14:01:42.312Z,6.83
2019-04-26T14:04:08.941Z,4.20
2019-04-26T14:06:35.605Z,4.20
2019-04-26T14:09:05.223Z,3.77
2019-04-26T14:13:59.947Z,3.58
2019-04-26T14:16:27.828Z,3.17
2019-04-26T14:18:55.578Z,5.42
2019-04-26T14:21:22.305Z,2.60
2019-04-26T14:24:07.133Z,4.78
2019-04-26T14:26:39.974Z,2.10
2019-04-26T14:29:06.360Z,5.33
2019-04-26T14:31:33.340Z,4.65
2019-04-26T14:34:01.325Z,2.87
2019-04-26T14:36:28.443Z,2.83
2019-04-26T14:39:05.246Z,1.87
2019-04-26T14:41:23.785Z,3.50
2019-04-26T14:43:52.728Z,2.27
2019-04-26T14:46:18.741Z,7.17
2019-04-26T14:49:00.309Z,4.70
2019-04-26T14:51:16.724Z,2.22
2019-04-26T14:53:41.538Z,6.45
2019-04-26T14:56:07.844Z,3.75
2019-04-26T14:58:34.435Z,3.98
2019-04-26T15:01:03.911Z,5.00
2019-04-26T15:03:43.019Z,4.67
2019-04-26T15:06:26.620Z,4.20
2019-04-26T15:08:53.235Z,2.85
2019-04-26T15:11:22.883Z,3.67
2019-04-26T15:13:48.343Z,6.12
2019-04-26T15:16:14.705Z,4.22
2019-04-26T15:18:42.654Z,6.33
2019-04-26T15:21:09.471Z,5.12
2019-04-26T15:23:35.943Z,7.25
2019-04-26T15:26:03.178Z,5.20
2019-04-26T15:28:29.906Z,2.27
2019-04-26T15:30:56.372Z,4.10
2019-04-26T15:33:22.875Z,4.45
2019-04-26T15:35:49.282Z,2.90
2019-04-26T15:38:16.075Z,3.00
2019-04-26T15:41:00.033Z,3.65
2019-04-26T15:43:28.490Z,3.95
2019-04-26T15:45:59.807Z,5.22
2019-04-26T15:48:44.936Z,3.25
2019-04-26T15:51:12.891Z,3.87
2019-04-26T15:53:39.258Z,5.70
2019-04-26T15:56:10.115Z,4.50
2019-04-26T15:58:38.574Z,3.12
2019-04-26T16:01:06.799Z,2.70
2019-04-26T16:03:32.875Z,3.90
2019-04-26T16:06:06.944Z,4.10
2019-04-26T16:08:33.091Z,5.22
2019-04-26T16:10:57.968Z,3.65
2019-04-26T16:13:24.424Z,3.27
2019-04-26T16:15:51.030Z,3.47
2019-04-26T16:18:19.102Z,3.70
2019-04-26T16:20:45.865Z,4.22
2019-04-26T16:23:13.467Z,5.62
2019-04-26T16:25:42.839Z,3.95
2019-04-26T16:28:26.508Z,4.15
2019-04-26T16:31:10.943Z,5.92
2019-04-26T16:33:46.139Z,5.17
2019-04-26T16:36:12.807Z,2.52
2019-04-26T16:38:39.241Z,4.75
2019-04-26T16:41:06.074Z,3.83
2019-04-26T16:43:40.036Z,7.97
2019-04-26T16:46:02.974Z,3.10
2019-04-26T16:48:29.573Z,6.47
2019-04-26T16:51:00.996Z,4.40
2019-04-26T16:53:43.865Z,2.55
2019-04-26T16:55:54.769Z,2.83
2019-04-26T16:58:24.690Z,5.58
2019-04-26T17:00:55.443Z,3.37
2019-04-26T17:03:20.964Z,3.37
2019-04-26T17:05:48.763Z,5.37
2019-04-26T17:08:19.160Z,1.98
2019-04-26T17:10:46.727Z,3.15
2019-04-26T17:13:13.349Z,4.95
2019-04-26T17:15:39.907Z,5.75
2019-04-26T17:18:07.725Z,4.45
2019-04-26T17:20:34.342Z,4.97
2019-04-26T17:23:08.663Z,4.17
2019-04-26T17:25:36.877Z,6.53
2019-04-26T17:28:03.546Z,5.35
2019-04-26T17:30:34.530Z,3.47
2019-04-26T17:32:58.545Z,3.50
2019-04-26T17:35:25.553Z,3.83
2019-04-26T17:37:52.144Z,5.22
2019-04-26T17:40:23.327Z,5.00
2019-04-26T17:42:47.207Z,4.72
2019-04-26T17:45:13.851Z,5.78
2019-04-26T17:47:42.406Z,6.65
2019-04-26T17:50:10.969Z,4.92
2019-04-26T17:52:37.893Z,4.92
2019-04-26T17:55:07.901Z,5.83
2019-04-26T17:57:36.636Z,7.08
2019-04-26T18:00:08.084Z,4.28
2019-04-26T18:02:42.142Z,5.50
2019-04-26T18:05:03.635Z,5.90
2019-04-26T18:07:43.701Z,4.90
2019-04-26T18:10:04.384Z,6.30
2019-04-26T18:12:27.216Z,10.28
2019-04-26T18:14:53.803Z,7.72
2019-04-26T18:17:33.004Z,5.15
2019-04-26T18:20:18.200Z,6.35
2019-04-26T18:22:47.106Z,7.85
2019-04-26T18:25:14.713Z,7.33
2019-04-26T18:27:43.402Z,7.45
2019-04-26T18:30:12.229Z,4.62
2019-04-26T18:32:42.906Z,4.58
2019-04-26T18:35:09.133Z,3.55
2019-04-26T18:37:38.574Z,3.42
2019-04-26T18:40:04.858Z,3.00
2019-04-26T18:42:33.511Z,2.05
2019-04-26T18:45:01.087Z,3.35
2019-04-26T18:47:29.493Z,3.58
2019-04-26T18:49:58.321Z,2.33
2019-04-26T18:52:26.314Z,3.58
2019-04-26T18:54:57.677Z,3.22
2019-04-26T18:59:51.691Z,7.75
2019-04-26T19:02:20.842Z,6.40
2019-04-26T19:04:48.178Z,3.67
2019-04-26T19:07:17.247Z,6.67
2019-04-26T19:09:58.924Z,4.42
2019-04-26T19:12:13.829Z,5.50
2019-04-26T19:15:03.602Z,2.75
2019-04-26T19:17:33.811Z,3.80
2019-04-26T19:20:05.651Z,5.17
2019-04-26T19:22:34.496Z,3.05
2019-04-26T19:25:03.105Z,6.70
2019-04-26T19:27:29.531Z,5.00
2019-04-26T19:29:57.049Z,15.40
2019-04-26T19:32:23.740Z,5.53
2019-04-26T19:34:52.281Z,5.03
2019-04-26T19:37:18.850Z,3.55
2019-04-26T19:39:45.407Z,4.33
2019-04-26T19:42:12.025Z,4.15
2019-04-26T19:44:39.735Z,5.20
2019-04-26T19:47:22.529Z,5.28
2019-04-26T19:49:52.431Z,6.17
2019-04-26T19:52:33.628Z,4.60
2019-04-26T19:55:11.524Z,6.10
2019-04-26T19:57:40.595Z,6.50
2019-04-26T20:00:09.369Z,7.37
2019-04-26T20:02:39.239Z,4.70
2019-04-26T20:05:06.658Z,7.33
2019-04-26T20:07:36.978Z,6.05
2019-04-26T20:10:05.561Z,5.58
2019-04-26T20:12:35.151Z,4.40
2019-04-26T20:15:02.191Z,4.40
2019-04-26T20:17:30.080Z,4.50
2019-04-26T20:19:56.357Z,4.87
2019-04-26T20:22:28.372Z,5.62
2019-04-26T20:24:53.830Z,5.33
2019-04-26T20:27:20.651Z,5.28
2019-04-26T20:29:49.367Z,3.58
2019-04-26T20:32:23.739Z,5.78
2019-04-26T20:34:50.965Z,5.20
2019-04-26T20:37:23.080Z,6.60
2019-04-26T20:39:45.863Z,4.37
2019-04-26T20:42:12.817Z,3.90
2019-04-26T20:44:49.002Z,6.65
2019-04-26T20:47:14.418Z,4.55
2019-04-26T20:49:47.445Z,3.17
2019-04-26T20:52:05.314Z,3.33
2019-04-26T20:54:31.765Z,4.10
2019-04-26T20:56:58.055Z,3.58
2019-04-26T20:59:24.536Z,3.40
2019-04-26T21:02:02.483Z,4.70
2019-04-26T21:04:34.952Z,2.87
2019-04-26T21:06:47.865Z,4.60
2019-04-26T21:09:15.677Z,3.52
2019-04-26T21:11:42.141Z,4.12
2019-04-26T21:14:08.898Z,2.20
2019-04-26T21:16:36.506Z,2.65
2019-04-26T21:19:03.138Z,3.45
2019-04-26T21:21:29.521Z,2.60
2019-04-26T21:23:55.944Z,2.27
2019-04-26T21:26:26.840Z,2.58
2019-04-26T21:29:03.201Z,2.30
2019-04-26T21:31:45.566Z,2.40
2019-04-26T21:34:23.770Z,3.52
2019-04-26T21:36:54.955Z,4.47
2019-04-26T21:41:54.585Z,4.60
2019-04-26T21:44:21.261Z,3.30
2019-04-26T21:46:49.653Z,2.45
2019-04-26T21:49:20.320Z,4.28
2019-04-26T21:51:50.909Z,3.50
2019-04-26T21:54:14.379Z,3.92
2019-04-26T21:56:42.739Z,3.30
2019-04-26T21:59:09.397Z,4.42
2019-04-26T22:01:36.287Z,4.17
2019-04-26T22:04:04.731Z,4.12
2019-04-26T22:06:33.317Z,4.70
2019-04-26T22:09:16.852Z,3.10
2019-04-26T22:11:44.493Z,4.45
2019-04-26T22:14:23.490Z,2.22
2019-04-26T22:16:53.366Z,3.83
2019-04-26T22:19:32.085Z,4.92
2019-04-26T22:22:16.729Z,2.77
2019-04-26T22:24:45.288Z,2.37
2019-04-26T22:27:13.231Z,3.95
2019-04-26T22:29:39.949Z,2.75
2019-04-26T22:32:06.776Z,3.45
2019-04-26T22:34:33.499Z,2.67
2019-04-26T22:37:01.805Z,3.75
2019-04-26T22:39:32.756Z,3.65
2019-04-26T22:41:58.433Z,3.40
2019-04-26T22:44:31.245Z,2.10
2019-04-26T22:47:09.478Z,5.65
2019-04-26T22:49:41.797Z,3.50
2019-04-26T22:52:06.433Z,4.80
2019-04-26T22:54:33.723Z,4.15
2019-04-26T22:57:03.806Z,3.95
2019-04-26T22:59:33.792Z,4.95
2019-04-26T23:02:00.537Z,3.72
2019-04-26T23:04:26.978Z,4.87
2019-04-26T23:06:54.243Z,4.28
2019-04-26T23:09:23.322Z,3.67
2019-04-26T23:11:51.867Z,3.30
2019-04-26T23:14:29.301Z,4.10
2019-04-26T23:17:05.693Z,4.62
2019-04-26T23:19:40.032Z,6.37
2019-04-26T23:22:07.370Z,5.70
2019-04-26T23:24:33.699Z,5.42
2019-04-26T23:27:03.920Z,4.62
2019-04-26T23:29:30.621Z,5.03
2019-04-26T23:31:57.163Z,4.10
2019-04-26T23:34:25.274Z,4.55
2019-04-26T23:36:51.719Z,5.08
2019-04-26T23:39:18.175Z,5.62
2019-04-26T23:41:44.679Z,4.45
2019-04-26T23:44:13.025Z,4.30
2019-04-26T23:46:39.260Z,5.00
2019-04-26T23:49:05.534Z,4.87
2019-04-26T23:51:31.868Z,3.42
2019-04-26T23:53:58.312Z,3.80
2019-04-26T23:56:25.348Z,6.00
2019-04-26T23:58:53.183Z,5.65
